Time;durP1;ratioP1;P1;durP2;ratioP2;P2;SDS_P1;SDS_P2;PMS_P1;PMS_P2;Temp;Humidity;BMP_temperature;BMP_pressure;BME280_temperature;BME280_humidity;BME280_pressure;Samples;Min_cycle;Max_cycle;Signal;HPM_P1;HPM_P2
2022/04/22 00:00:38;;;;;;;11.98;10.98;;;9.80;70.30;;;;;;5135392;27;20288;-56
2022/04/22 00:03:06;;;;;;;12.15;11.25;;;9.80;70.40;;;;;;5136738;27;20734;-56
2022/04/22 00:05:33;;;;;;;12.73;11.65;;;9.70;70.60;;;;;;5136720;27;20602;-56
2022/04/22 00:08:00;;;;;;;11.40;10.50;;;9.60;70.80;;;;;;5136500;27;20212;-57
2022/04/22 00:10:27;;;;;;;11.90;10.95;;;9.70;71.00;;;;;;5136527;27;20297;-56
2022/04/22 00:12:54;;;;;;;12.00;11.00;;;9.70;70.60;;;;;;5136310;27;20204;-56
2022/04/22 00:15:22;;;;;;;12.55;11.50;;;9.70;70.60;;;;;;5135112;27;20213;-57
2022/04/22 00:17:50;;;;;;;11.52;10.48;;;9.70;71.00;;;;;;5136414;27;20224;-56
2022/04/22 00:20:17;;;;;;;11.93;11.02;;;9.70;70.70;;;;;;5136230;27;20232;-56
2022/04/22 00:22:44;;;;;;;11.60;10.63;;;9.80;70.70;;;;;;5136293;27;20734;-56
2022/04/22 00:25:13;;;;;;;12.43;11.32;;;9.80;70.50;;;;;;5136223;27;20197;-57
2022/04/22 00:27:41;;;;;;;12.38;11.38;;;9.60;71.10;;;;;;5136137;27;20201;-56
2022/04/22 00:30:09;;;;;;;12.32;11.30;;;9.60;71.20;;;;;;5135054;27;20201;-56
2022/04/22 00:32:38;;;;;;;11.90;10.90;;;9.50;71.30;;;;;;5136136;27;20270;-56
2022/04/22 00:35:05;;;;;;;11.43;10.60;;;9.50;72.00;;;;;;5135963;27;20299;-57
2022/04/22 00:37:32;;;;;;;12.63;11.52;;;9.50;71.50;;;;;;5136051;27;20221;-56
2022/04/22 00:39:59;;;;;;;12.10;10.85;;;9.30;72.00;;;;;;5136032;27;20214;-56
2022/04/22 00:42:28;;;;;;;12.30;11.25;;;9.30;72.40;;;;;;5135795;27;20255;-56
2022/04/22 00:44:58;;;;;;;12.80;11.70;;;9.30;72.40;;;;;;5134673;27;20658;-56
2022/04/22 00:47:25;;;;;;;12.32;11.13;;;9.30;72.10;;;;;;5135393;27;20219;-56
2022/04/22 00:49:54;;;;;;;13.23;11.40;;;9.30;72.60;;;;;;5135852;27;20204;-56
2022/04/22 00:52:22;;;;;;;12.20;11.20;;;9.30;72.70;;;;;;5135775;27;20207;-57
2022/04/22 00:54:49;;;;;;;11.85;10.82;;;9.20;72.50;;;;;;5135707;27;20299;-56
2022/04/22 00:57:18;;;;;;;13.05;11.88;;;9.30;72.40;;;;;;5135532;27;20232;-56
2022/04/22 00:59:46;;;;;;;12.68;11.48;;;9.40;72.20;;;;;;5134361;27;20234;-56
2022/04/22 01:02:13;;;;;;;11.38;10.48;;;9.40;72.00;;;;;;5135469;27;20622;-56
2022/04/22 01:10:10;;;;;;;13.50;12.23;;;9.20;72.80;;;;;;5135388;27;20226;-56
2022/04/22 01:12:37;;;;;;;12.10;11.00;;;9.10;73.00;;;;;;5135144;27;20291;-58
2022/04/22 01:15:06;;;;;;;13.73;12.32;;;9.10;73.10;;;;;;5134022;27;20570;-56
2022/04/22 01:17:33;;;;;;;12.20;11.10;;;9.10;73.10;;;;;;5135194;27;20236;-58
2022/04/22 01:19:59;;;;;;;11.75;10.70;;;9.00;73.20;;;;;;5134963;27;20248;-58
2022/04/22 01:22:28;;;;;;;12.60;11.45;;;9.00;72.90;;;;;;5135102;27;20261;-57
2022/04/22 01:25:00;;;;;;;13.25;12.02;;;9.00;73.20;;;;;;5135212;27;20208;-58
2022/04/22 01:27:29;;;;;;;13.48;11.90;;;9.00;73.30;;;;;;5134975;27;20201;-58
2022/04/22 01:29:57;;;;;;;14.02;12.52;;;8.90;73.80;;;;;;5133726;27;20204;-59
2022/04/22 01:32:26;;;;;;;13.15;11.95;;;8.80;74.30;;;;;;5134832;27;20203;-58
2022/04/22 01:34:53;;;;;;;11.95;10.95;;;8.80;74.30;;;;;;5134919;27;20204;-56
2022/04/22 01:37:19;;;;;;;13.48;12.38;;;8.80;74.00;;;;;;5134917;27;20283;-57
2022/04/22 01:39:48;;;;;;;14.00;12.70;;;8.90;74.20;;;;;;5134758;27;20232;-56
2022/04/22 01:42:15;;;;;;;13.98;12.55;;;8.80;74.20;;;;;;5134807;27;20197;-56
2022/04/22 01:44:42;;;;;;;13.82;11.70;;;8.70;74.10;;;;;;5133555;27;20319;-56
2022/04/22 01:47:09;;;;;;;14.10;12.68;;;8.80;74.10;;;;;;5134977;27;20315;-56
2022/04/22 01:49:36;;;;;;;13.90;12.60;;;8.80;74.60;;;;;;5134719;27;20291;-56
2022/04/22 01:52:03;;;;;;;14.18;12.85;;;8.70;74.40;;;;;;5134511;27;20623;-56
2022/04/22 01:54:30;;;;;;;13.80;12.50;;;8.70;74.50;;;;;;5134415;27;20283;-56
2022/04/22 01:56:58;;;;;;;14.32;12.93;;;8.60;74.50;;;;;;5134219;27;20657;-56
2022/04/22 01:59:25;;;;;;;14.77;13.27;;;8.60;74.40;;;;;;5132442;27;20627;-56
2022/04/22 02:01:51;;;;;;;13.70;12.43;;;8.70;74.50;;;;;;5134334;27;20307;-56
2022/04/22 02:04:18;;;;;;;14.00;12.73;;;8.60;74.70;;;;;;5134533;27;20291;-56
2022/04/22 02:06:45;;;;;;;13.60;12.25;;;8.50;75.00;;;;;;5134260;27;20228;-56
2022/04/22 02:09:12;;;;;;;14.82;13.30;;;8.50;75.10;;;;;;5134349;27;20199;-56
2022/04/22 02:11:41;;;;;;;14.80;13.40;;;8.50;75.00;;;;;;5134266;27;20200;-56
2022/04/22 02:14:09;;;;;;;13.30;12.00;;;8.50;75.00;;;;;;5134166;27;20201;-56
2022/04/22 02:16:36;;;;;;;14.60;12.73;;;8.50;74.90;;;;;;5132897;27;20228;-55
2022/04/22 02:19:04;;;;;;;13.45;12.27;;;8.50;75.20;;;;;;5133948;27;20720;-56
2022/04/22 02:21:31;;;;;;;14.80;13.30;;;8.50;75.20;;;;;;5133826;27;20724;-56
2022/04/22 02:23:57;;;;;;;14.43;12.80;;;8.40;75.20;;;;;;5134112;27;20210;-56
2022/04/22 02:26:24;;;;;;;14.43;13.07;;;8.40;75.10;;;;;;5134040;27;20232;-57
2022/04/22 02:28:50;;;;;;;14.77;13.25;;;8.40;75.60;;;;;;5133825;27;20261;-56
2022/04/22 02:31:18;;;;;;;13.90;12.50;;;8.30;75.50;;;;;;5132637;27;20205;-56
2022/04/22 02:33:45;;;;;;;14.70;13.07;;;8.30;75.30;;;;;;5133943;27;20878;-56
2022/04/22 02:36:14;;;;;;;15.73;14.13;;;8.40;75.50;;;;;;5133954;27;20606;-56
2022/04/22 02:38:41;;;;;;;14.52;12.32;;;8.30;75.60;;;;;;5133987;27;20227;-56
2022/04/22 02:46:37;;;;;;;14.10;12.85;;;8.30;76.20;;;;;;5132472;28;20672;-56
2022/04/22 02:49:04;;;;;;;13.85;12.48;;;8.10;76.40;;;;;;5133937;28;20667;-56
2022/04/22 02:51:31;;;;;;;15.60;14.00;;;8.10;76.50;;;;;;5133833;28;20565;-56
2022/04/22 02:53:58;;;;;;;16.05;14.35;;;8.00;76.90;;;;;;5133823;28;20646;-56
2022/04/22 02:56:26;;;;;;;13.95;12.55;;;8.00;77.00;;;;;;5133622;28;20642;-56
2022/04/22 02:58:54;;;;;;;15.68;14.07;;;8.00;76.70;;;;;;5133348;28;20234;-57
2022/04/22 03:01:21;;;;;;;15.43;13.82;;;8.00;77.20;;;;;;5132382;28;20203;-56
2022/04/22 03:03:49;;;;;;;15.15;12.98;;;7.90;77.40;;;;;;5133665;28;20211;-56
2022/04/22 03:06:17;;;;;;;16.35;14.73;;;7.90;77.50;;;;;;5133561;28;20728;-56
2022/04/22 03:08:44;;;;;;;17.20;15.27;;;7.90;77.50;;;;;;5133775;27;20199;-56
2022/04/22 03:11:11;;;;;;;16.63;14.90;;;7.90;77.40;;;;;;5136137;27;20550;-56
2022/04/22 03:13:39;;;;;;;16.23;14.52;;;7.90;77.60;;;;;;5137520;27;20242;-56
2022/04/22 03:16:06;;;;;;;17.55;15.68;;;7.90;77.60;;;;;;5136266;27;20248;-55
2022/04/22 03:18:34;;;;;;;17.67;15.88;;;7.80;77.90;;;;;;5137513;27;20314;-56
2022/04/22 03:21:03;;;;;;;17.25;15.07;;;7.80;78.30;;;;;;5137397;27;20720;-56
2022/04/22 03:23:29;;;;;;;20.77;16.10;;;7.70;78.40;;;;;;5137501;27;20292;-55
2022/04/22 03:25:56;;;;;;;17.60;15.32;;;7.70;78.60;;;;;;5137461;27;20211;-56
2022/04/22 03:28:23;;;;;;;19.08;16.45;;;7.70;78.00;;;;;;5137260;27;20238;-56
2022/04/22 03:30:51;;;;;;;17.55;15.85;;;7.80;78.00;;;;;;5136151;27;20207;-56
2022/04/22 03:33:18;;;;;;;20.00;15.93;;;7.90;77.80;;;;;;5137272;27;20289;-56
2022/04/22 03:35:50;;;;;;;19.80;17.23;;;7.90;77.60;;;;;;5137451;27;20556;-56
2022/04/22 03:38:18;;;;;;;17.55;15.75;;;7.90;77.40;;;;;;5137155;27;20237;-56
2022/04/22 03:40:45;;;;;;;17.50;15.63;;;7.90;77.50;;;;;;5136992;27;20206;-56
2022/04/22 03:43:12;;;;;;;19.02;17.02;;;7.90;77.50;;;;;;5136899;27;20291;-55
2022/04/22 03:45:39;;;;;;;19.23;15.82;;;7.90;77.70;;;;;;5135736;27;20665;-55
2022/04/22 03:48:06;;;;;;;18.08;16.20;;;7.80;78.00;;;;;;5137270;27;20238;-56
2022/04/22 03:50:36;;;;;;;18.80;15.82;;;7.70;78.00;;;;;;5137003;27;20200;-56
2022/04/22 03:53:03;;;;;;;22.15;17.15;;;7.60;78.80;;;;;;5136925;27;20293;-56
2022/04/22 03:55:32;;;;;;;23.83;17.95;;;7.50;79.10;;;;;;5136724;27;20287;-56
2022/04/22 04:00:48;;;;;;;20.33;16.00;;;7.70;78.10;;;;;;5131801;27;20196;-55
2022/04/22 04:03:16;;;;;;;19.00;15.85;;;7.80;78.20;;;;;;5136693;27;20576;-56
2022/04/22 04:05:46;;;;;;;21.90;17.98;;;7.70;78.30;;;;;;5136563;27;20202;-55
2022/04/22 04:08:13;;;;;;;21.40;16.85;;;7.70;78.40;;;;;;5136460;27;20686;-55
2022/04/22 04:16:24;;;;;;;20.00;17.23;;;7.50;79.20;;;;;;5091880;28;20258;-56
2022/04/22 04:18:51;;;;;;;19.08;17.08;;;7.50;79.20;;;;;;5093179;28;20310;-56
2022/04/22 04:24:03;;;;;;;22.08;18.23;;;7.40;79.60;;;;;;5136352;27;20297;-56
2022/04/22 04:26:31;;;;;;;21.10;18.00;;;7.40;79.60;;;;;;5136179;27;20203;-56
2022/04/22 04:28:58;;;;;;;22.27;17.75;;;7.40;79.70;;;;;;5135947;27;20668;-56
2022/04/22 04:31:25;;;;;;;21.92;18.00;;;7.40;79.70;;;;;;5134807;27;20203;-56
2022/04/22 04:33:52;;;;;;;21.58;17.55;;;7.40;79.60;;;;;;5135993;27;20204;-56
2022/04/22 04:36:19;;;;;;;24.33;18.80;;;7.40;79.90;;;;;;5136207;27;20199;-55
2022/04/22 04:38:46;;;;;;;20.35;17.02;;;7.40;80.00;;;;;;5135903;27;20317;-56
2022/04/22 04:41:13;;;;;;;23.48;17.50;;;7.40;80.10;;;;;;5135875;27;20286;-56
2022/04/22 04:43:42;;;;;;;24.17;18.30;;;7.40;80.00;;;;;;5135836;27;20199;-55
2022/04/22 04:46:09;;;;;;;23.88;18.52;;;7.40;80.20;;;;;;5134426;27;20207;-55
2022/04/22 04:48:36;;;;;;;24.73;18.83;;;7.40;80.10;;;;;;5135965;27;20250;-56
2022/04/22 04:51:04;;;;;;;24.17;18.75;;;7.40;80.00;;;;;;5135861;27;20202;-55
2022/04/22 04:53:30;;;;;;;24.67;19.17;;;7.50;80.00;;;;;;5135699;27;20665;-56
2022/04/22 04:55:57;;;;;;;28.20;19.77;;;7.50;79.80;;;;;;5135668;27;20239;-55
2022/04/22 04:58:24;;;;;;;23.20;17.90;;;7.50;79.70;;;;;;5135294;27;20237;-56
2022/04/22 05:00:52;;;;;;;25.40;18.83;;;7.60;79.80;;;;;;5134282;27;20561;-55
2022/04/22 05:03:19;;;;;;;26.60;19.17;;;7.50;80.10;;;;;;5135469;27;20340;-56
2022/04/22 05:05:46;;;;;;;23.60;19.15;;;7.60;80.10;;;;;;5135502;27;20235;-55
2022/04/22 05:08:13;;;;;;;23.38;19.40;;;7.50;80.30;;;;;;5135431;27;20213;-55
2022/04/22 05:10:40;;;;;;;25.38;19.48;;;7.50;80.30;;;;;;5135311;27;20628;-55
2022/04/22 05:13:07;;;;;;;22.45;19.50;;;7.60;80.10;;;;;;5135317;27;20201;-56
2022/04/22 05:15:35;;;;;;;30.67;20.13;;;7.50;80.30;;;;;;5133961;27;20242;-56
2022/04/22 05:18:04;;;;;;;28.35;19.15;;;7.60;80.30;;;;;;5135216;27;20283;-55
2022/04/22 05:20:32;;;;;;;27.10;20.27;;;7.70;79.70;;;;;;5134936;27;20780;-56
2022/04/22 05:22:59;;;;;;;28.30;20.30;;;7.70;79.70;;;;;;5134908;27;20199;-54
2022/04/22 05:25:26;;;;;;;24.77;19.70;;;7.80;79.60;;;;;;5134995;27;20662;-55
2022/04/22 05:27:53;;;;;;;25.02;19.65;;;7.80;79.50;;;;;;5134920;27;20226;-55
2022/04/22 05:33:06;;;;;;;25.65;19.98;;;7.90;79.40;;;;;;5134849;27;20689;-56
2022/04/22 05:35:34;;;;;;;27.00;21.27;;;7.80;79.50;;;;;;5134779;27;20199;-54
2022/04/22 05:38:02;;;;;;;27.42;20.75;;;7.80;79.60;;;;;;5134734;27;20281;-55
2022/04/22 05:40:30;;;;;;;30.65;22.80;;;7.80;79.70;;;;;;5134656;27;20737;-56
2022/04/22 05:42:58;;;;;;;28.88;20.60;;;7.80;79.80;;;;;;5134553;27;20200;-55
2022/04/22 05:45:26;;;;;;;31.52;20.80;;;7.90;79.30;;;;;;5133309;27;20299;-56
2022/04/22 05:47:53;;;;;;;22.95;19.55;;;8.00;79.00;;;;;;5134374;27;20653;-56
2022/04/22 05:50:22;;;;;;;25.20;19.98;;;8.10;78.60;;;;;;5134515;27;20207;-55
2022/04/22 05:52:50;;;;;;;29.55;21.48;;;8.10;78.80;;;;;;5134434;27;20308;-55
2022/04/22 05:55:19;;;;;;;29.27;21.73;;;8.10;78.60;;;;;;5134439;27;20290;-56
2022/04/22 05:57:47;;;;;;;29.70;21.25;;;8.20;78.10;;;;;;5134119;27;20318;-55
2022/04/22 06:00:16;;;;;;;26.35;19.98;;;8.30;77.80;;;;;;5132820;27;20698;-55
2022/04/22 06:02:44;;;;;;;27.52;21.25;;;8.30;77.90;;;;;;5134310;27;20223;-55
2022/04/22 06:05:11;;;;;;;24.10;19.25;;;8.40;77.80;;;;;;5134302;27;20303;-55
2022/04/22 06:07:41;;;;;;;30.15;22.88;;;8.50;77.40;;;;;;5134248;27;20238;-56
2022/04/22 06:12:55;;;;;;;29.00;21.88;;;8.60;76.70;;;;;;5134113;27;20501;-56
2022/04/22 06:15:22;;;;;;;31.23;22.42;;;8.70;76.70;;;;;;5132721;27;20245;-56
2022/04/22 06:17:49;;;;;;;30.50;21.95;;;8.70;76.60;;;;;;5134017;27;20205;-56
2022/04/22 06:20:17;;;;;;;32.60;24.00;;;8.80;76.30;;;;;;5133793;27;20253;-55
2022/04/22 06:22:45;;;;;;;31.42;23.45;;;8.80;76.40;;;;;;5134164;27;20647;-56
2022/04/22 06:25:12;;;;;;;32.13;22.80;;;8.80;76.20;;;;;;5134004;27;20202;-56
2022/04/22 06:27:41;;;;;;;30.92;22.63;;;8.80;76.40;;;;;;5133694;27;20290;-56
2022/04/22 06:30:10;;;;;;;28.83;21.20;;;8.90;76.50;;;;;;5132661;27;20199;-56
2022/04/22 06:32:39;;;;;;;34.10;23.65;;;8.90;76.50;;;;;;5133907;27;20219;-54
2022/04/22 06:35:08;;;;;;;31.92;22.88;;;9.00;76.10;;;;;;5133825;27;20203;-56
2022/04/22 06:37:37;;;;;;;32.33;25.25;;;9.10;75.90;;;;;;5133768;27;20204;-56
2022/04/22 06:45:49;;;;;;;32.75;23.85;;;9.00;76.50;;;;;;5131905;27;20198;-55
2022/04/22 06:48:19;;;;;;;29.58;23.85;;;9.10;76.20;;;;;;5133816;28;20200;-56
2022/04/22 06:50:48;;;;;;;32.42;22.58;;;9.20;75.80;;;;;;5133687;28;20294;-54
2022/04/22 06:53:16;;;;;;;31.30;22.83;;;9.20;75.60;;;;;;5133695;27;20290;-56
2022/04/22 06:55:46;;;;;;;28.65;23.30;;;9.20;75.60;;;;;;5133584;28;20306;-56
2022/04/22 06:58:15;;;;;;;28.92;22.50;;;9.30;75.30;;;;;;5133427;28;20673;-55
2022/04/22 07:00:43;;;;;;;29.90;22.70;;;9.30;75.40;;;;;;5132276;28;20271;-56
2022/04/22 07:03:11;;;;;;;28.00;21.90;;;9.30;75.60;;;;;;5133416;28;20213;-56
2022/04/22 07:05:39;;;;;;;32.50;24.13;;;9.20;76.20;;;;;;5133488;28;20210;-56
2022/04/22 07:08:13;;;;;;;31.23;23.30;;;9.30;75.90;;;;;;5133594;28;20200;-56
2022/04/22 07:10:40;;;;;;;33.17;23.55;;;9.40;75.90;;;;;;5133555;27;20219;-55
2022/04/22 07:13:10;;;;;;;30.25;23.33;;;9.40;75.90;;;;;;5133267;28;20294;-54
2022/04/22 07:15:37;;;;;;;29.63;22.85;;;9.50;75.30;;;;;;5132102;27;20295;-55
2022/04/22 07:18:05;;;;;;;30.17;23.45;;;9.50;75.10;;;;;;5133445;27;20207;-56
2022/04/22 07:20:33;;;;;;;29.42;22.63;;;9.50;75.10;;;;;;5133172;28;20247;-56
2022/04/22 07:23:00;;;;;;;32.65;23.05;;;9.60;74.80;;;;;;5133277;28;20208;-56
2022/04/22 07:25:28;;;;;;;33.95;24.70;;;9.70;74.60;;;;;;5133323;27;20215;-55
2022/04/22 07:27:55;;;;;;;28.45;22.92;;;9.70;74.30;;;;;;5133154;28;20215;-56
2022/04/22 07:30:24;;;;;;;29.42;21.63;;;9.80;74.30;;;;;;5132026;28;20288;-56
2022/04/22 07:32:52;;;;;;;34.83;23.92;;;9.80;74.30;;;;;;5133334;27;20208;-56
2022/04/22 07:35:21;;;;;;;30.33;23.02;;;9.80;74.30;;;;;;5133554;27;20650;-56
2022/04/22 07:37:49;;;;;;;31.05;23.23;;;9.80;74.10;;;;;;5133189;28;20245;-56
2022/04/22 07:40:19;;;;;;;32.63;24.85;;;9.80;74.20;;;;;;5133298;28;20228;-55
2022/04/22 07:48:16;;;;;;;35.33;24.83;;;10.00;73.90;;;;;;5133190;28;20287;-56
2022/04/22 07:50:44;;;;;;;34.10;24.27;;;10.10;73.70;;;;;;5133206;28;20211;-58
2022/04/22 07:53:10;;;;;;;32.50;23.52;;;10.10;73.20;;;;;;5133015;28;20232;-55
2022/04/22 07:55:38;;;;;;;35.40;23.90;;;10.10;73.40;;;;;;5133232;28;20654;-55
2022/04/22 07:58:06;;;;;;;33.03;23.23;;;10.10;73.30;;;;;;5135054;27;20290;-56
2022/04/22 08:00:34;;;;;;;30.85;22.83;;;10.20;73.30;;;;;;5135317;27;20238;-56
2022/04/22 08:03:01;;;;;;;34.30;24.80;;;10.30;73.60;;;;;;5136714;27;20647;-55
2022/04/22 08:05:27;;;;;;;30.38;23.90;;;10.30;73.20;;;;;;5136646;27;20300;-56
2022/04/22 08:07:54;;;;;;;30.80;23.75;;;10.40;73.20;;;;;;5136773;27;20243;-55
2022/04/22 08:10:21;;;;;;;31.90;23.10;;;10.50;72.70;;;;;;5136697;27;20197;-56
2022/04/22 08:12:48;;;;;;;30.02;23.70;;;10.50;72.90;;;;;;5136488;27;20674;-57
2022/04/22 08:15:15;;;;;;;31.67;24.15;;;10.40;72.80;;;;;;5135109;27;20201;-56
2022/04/22 08:17:43;;;;;;;30.83;24.77;;;10.50;72.90;;;;;;5136479;27;20224;-55
2022/04/22 08:20:11;;;;;;;32.45;25.52;;;10.60;72.90;;;;;;5136146;27;20279;-54
2022/04/22 08:22:38;;;;;;;32.97;24.05;;;10.70;72.70;;;;;;5136243;27;20254;-56
2022/04/22 08:25:05;;;;;;;30.98;23.30;;;10.70;72.80;;;;;;5136268;27;20544;-56
2022/04/22 08:27:32;;;;;;;32.65;25.08;;;10.80;72.80;;;;;;5136144;27;20563;-55
2022/04/22 08:30:00;;;;;;;30.27;24.70;;;10.90;72.40;;;;;;5134767;27;20641;-55
2022/04/22 08:32:27;;;;;;;29.95;23.95;;;10.90;72.40;;;;;;5136212;27;20213;-57
2022/04/22 08:34:55;;;;;;;27.55;23.55;;;11.00;71.80;;;;;;5136006;27;20567;-56
2022/04/22 08:37:22;;;;;;;30.95;23.85;;;11.10;71.80;;;;;;5136067;27;20466;-54
2022/04/22 08:39:48;;;;;;;34.13;24.35;;;11.20;71.60;;;;;;5136015;27;20265;-56
2022/04/22 08:42:16;;;;;;;30.50;24.08;;;11.30;70.90;;;;;;5135981;27;20221;-57
2022/04/22 08:44:43;;;;;;;29.45;23.55;;;11.30;71.00;;;;;;5134452;27;20220;-55
2022/04/22 08:50:06;;;;;;;29.70;23.75;;;11.50;70.80;;;;;;5136001;27;20200;-54
2022/04/22 08:52:35;;;;;;;31.73;24.23;;;11.50;70.10;;;;;;5135850;27;20204;-56
2022/04/22 08:55:04;;;;;;;29.73;23.35;;;11.50;70.50;;;;;;5135594;27;20229;-55
2022/04/22 08:57:31;;;;;;;30.58;24.17;;;11.60;70.60;;;;;;5135739;27;20203;-56
2022/04/22 09:00:01;;;;;;;30.60;24.73;;;11.70;70.40;;;;;;5133905;27;20325;-53
2022/04/22 09:02:28;;;;;;;30.13;22.98;;;11.80;69.50;;;;;;5135348;27;20260;-55
2022/04/22 09:04:57;;;;;;;29.35;23.38;;;11.80;69.80;;;;;;5135440;27;20201;-56
2022/04/22 09:07:27;;;;;;;28.75;23.92;;;11.80;69.60;;;;;;5135501;27;20207;-56
2022/04/22 09:09:54;;;;;;;34.05;25.55;;;12.00;70.00;;;;;;5135080;27;20198;-56
2022/04/22 09:12:23;;;;;;;32.67;23.42;;;12.10;69.60;;;;;;5135391;27;20206;-55
2022/04/22 09:14:51;;;;;;;25.80;21.70;;;12.10;69.30;;;;;;5133827;27;20240;-55
2022/04/22 09:17:23;;;;;;;29.75;23.95;;;12.20;69.70;;;;;;5135335;27;20206;-56
2022/04/22 09:19:51;;;;;;;25.70;22.05;;;12.40;69.00;;;;;;5135108;27;20242;-55
2022/04/22 09:22:21;;;;;;;27.33;23.77;;;12.40;67.80;;;;;;5135139;27;20677;-56
2022/04/22 09:24:52;;;;;;;27.90;23.30;;;12.40;67.90;;;;;;5135041;27;20211;-55
2022/04/22 09:27:21;;;;;;;25.77;21.55;;;12.60;68.30;;;;;;5135075;27;20199;-57
2022/04/22 09:29:53;;;;;;;28.77;24.33;;;12.70;67.50;;;;;;5133250;27;20218;-56
2022/04/22 09:32:25;;;;;;;25.13;22.50;;;12.80;68.00;;;;;;5134806;27;20210;-56
2022/04/22 09:34:52;;;;;;;24.92;22.33;;;12.90;67.30;;;;;;5134859;27;20199;-55
2022/04/22 09:42:52;;;;;;;26.23;23.50;;;13.10;66.40;;;;;;5135122;27;20656;-56
2022/04/22 09:45:19;;;;;;;27.25;22.00;;;13.10;66.10;;;;;;5133389;27;20209;-56
2022/04/22 09:47:57;;;;;;;27.90;24.10;;;13.20;66.20;;;;;;5134661;27;20203;-56
2022/04/22 09:50:43;;;;;;;31.63;24.02;;;13.20;66.20;;;;;;5134581;27;20203;-56
2022/04/22 09:53:14;;;;;;;25.98;23.17;;;13.30;67.20;;;;;;5134574;27;20210;-55
2022/04/22 09:55:53;;;;;;;23.85;21.45;;;13.40;66.90;;;;;;5134466;27;20711;-56
2022/04/22 09:58:27;;;;;;;23.95;21.13;;;13.50;66.50;;;;;;5134190;27;20285;-56
2022/04/22 10:00:59;;;;;;;23.98;21.38;;;13.70;66.00;;;;;;5133002;27;20725;-54
2022/04/22 10:03:27;;;;;;;25.13;22.52;;;13.90;65.80;;;;;;5134379;27;20202;-56
2022/04/22 10:05:55;;;;;;;25.15;22.58;;;14.00;65.20;;;;;;5134414;27;20298;-55
2022/04/22 10:08:25;;;;;;;26.23;23.40;;;14.10;64.30;;;;;;5134215;27;20562;-55
2022/04/22 10:10:55;;;;;;;23.67;21.33;;;14.10;63.90;;;;;;5134130;27;20203;-55
2022/04/22 10:13:25;;;;;;;25.67;23.00;;;14.20;64.70;;;;;;5134090;27;20206;-56
2022/04/22 10:15:53;;;;;;;25.80;23.08;;;14.30;63.80;;;;;;5132940;27;20203;-55
2022/04/22 10:18:22;;;;;;;25.02;22.05;;;14.40;64.40;;;;;;5134178;27;20198;-56
2022/04/22 10:20:50;;;;;;;22.23;20.23;;;14.50;63.90;;;;;;5133094;27;20715;-56
2022/04/22 10:23:17;;;;;;;24.10;21.55;;;14.70;63.10;;;;;;5134119;27;20203;-54
2022/04/22 10:25:45;;;;;;;25.42;22.83;;;14.80;63.00;;;;;;5134239;27;20314;-56
2022/04/22 10:28:14;;;;;;;26.58;23.85;;;14.80;62.50;;;;;;5133985;27;20226;-55
2022/04/22 10:30:43;;;;;;;25.73;23.23;;;15.00;63.10;;;;;;5132420;27;20247;-56
2022/04/22 10:33:10;;;;;;;25.13;22.58;;;15.00;62.40;;;;;;5133915;27;20455;-56
2022/04/22 10:35:42;;;;;;;22.45;20.20;;;15.20;62.50;;;;;;5133892;27;20207;-55
2022/04/22 10:38:28;;;;;;;22.50;20.40;;;15.40;62.00;;;;;;5133574;27;20203;-56
2022/04/22 10:40:56;;;;;;;22.50;20.20;;;15.40;61.90;;;;;;5133585;27;20230;-54
2022/04/22 10:43:26;;;;;;;23.43;21.13;;;15.50;62.50;;;;;;5133463;27;20857;-54
2022/04/22 10:48:40;;;;;;;21.70;19.40;;;15.90;61.40;;;;;;5133884;28;20428;-56
2022/04/22 10:51:09;;;;;;;22.97;20.17;;;16.10;60.40;;;;;;5133663;27;20513;-56
2022/04/22 10:53:46;;;;;;;24.77;22.10;;;16.20;60.20;;;;;;5133625;28;20445;-56
2022/04/22 10:56:36;;;;;;;23.87;21.70;;;16.40;59.60;;;;;;5133703;28;20451;-56
2022/04/22 10:59:28;;;;;;;24.03;21.93;;;16.60;59.70;;;;;;5133411;28;20472;-55
2022/04/22 11:01:56;;;;;;;23.93;21.57;;;16.50;60.00;;;;;;5133411;28;20556;-57
2022/04/22 11:04:26;;;;;;;22.20;20.10;;;16.50;59.30;;;;;;5133405;27;20780;-56
2022/04/22 11:06:54;;;;;;;23.83;21.60;;;16.70;58.20;;;;;;5133643;27;20464;-55
2022/04/22 11:09:26;;;;;;;21.87;19.77;;;16.80;58.60;;;;;;5133373;28;20448;-55
2022/04/22 11:11:55;;;;;;;22.20;20.00;;;16.90;58.60;;;;;;5133539;28;20448;-57
2022/04/22 11:14:25;;;;;;;22.37;20.37;;;17.20;57.80;;;;;;5133085;28;20441;-56
2022/04/22 11:16:52;;;;;;;23.10;21.00;;;17.50;57.60;;;;;;5133248;28;20444;-57
2022/04/22 11:19:28;;;;;;;21.27;19.27;;;18.40;55.70;;;;;;5133481;27;20457;-57
2022/04/22 11:21:57;;;;;;;22.13;20.23;;;19.70;52.80;;;;;;5133098;28;20487;-55
2022/04/22 11:24:26;;;;;;;22.40;20.23;;;20.90;51.10;;;;;;5133298;28;21015;-57
2022/04/22 11:27:04;;;;;;;21.63;19.77;;;22.10;49.60;;;;;;5133397;28;20535;-56
2022/04/22 11:29:31;;;;;;;25.03;22.60;;;23.50;47.30;;;;;;5131838;27;20452;-57
2022/04/22 11:32:05;;;;;;;23.53;21.43;;;24.70;44.70;;;;;;5135323;27;20451;-57
2022/04/22 11:35:23;;;;;;;22.03;20.20;;;25.60;42.70;;;;;;5137099;27;20455;-55
2022/04/22 11:37:59;;;;;;;21.77;19.97;;;26.10;41.40;;;;;;5137356;27;20450;-57
2022/04/22 11:40:27;;;;;;;21.60;19.80;;;25.50;40.80;;;;;;5136932;27;20497;-57
2022/04/22 11:42:55;;;;;;;21.20;19.50;;;25.00;41.60;;;;;;5137183;27;20858;-57
2022/04/22 11:45:22;;;;;;;20.17;18.47;;;25.00;41.70;;;;;;5135602;27;20444;-58
2022/04/22 11:47:49;;;;;;;23.43;21.53;;;25.30;39.40;;;;;;5137051;27;20539;-56
2022/04/22 11:50:20;;;;;;;24.30;22.07;;;25.40;38.70;;;;;;5136815;27;20537;-57
2022/04/22 11:52:53;;;;;;;22.60;20.80;;;25.30;39.50;;;;;;5136850;27;20449;-57
2022/04/22 11:55:22;;;;;;;23.57;21.67;;;24.90;41.00;;;;;;5136629;27;20985;-57
2022/04/22 11:57:49;;;;;;;23.33;21.20;;;24.30;41.80;;;;;;5136808;27;20440;-58
2022/04/22 12:06:59;;;;;;;23.00;21.00;;;25.00;40.20;;;;;;5151932;27;20427;-60
2022/04/22 12:09:26;;;;;;;21.90;20.10;;;25.00;40.50;;;;;;5151792;27;20538;-58
2022/04/22 12:11:53;;;;;;;21.10;19.30;;;25.30;40.00;;;;;;5151671;27;20435;-61
2022/04/22 12:14:24;;;;;;;23.53;21.43;;;25.50;39.30;;;;;;5151536;27;20540;-59
2022/04/22 12:16:55;;;;;;;21.53;19.80;;;25.00;39.80;;;;;;5151123;27;20444;-61
2022/04/22 12:19:24;;;;;;;20.30;18.50;;;25.10;40.50;;;;;;5151613;27;20440;-60
2022/04/22 12:21:51;;;;;;;22.60;20.80;;;25.10;40.00;;;;;;5151634;27;20451;-60
2022/04/22 12:24:19;;;;;;;21.90;20.10;;;25.00;39.80;;;;;;5151553;27;20435;-57
2022/04/22 12:26:46;;;;;;;21.67;19.77;;;24.70;38.50;;;;;;5151522;27;20450;-60
2022/04/22 12:29:15;;;;;;;22.27;20.40;;;24.50;40.10;;;;;;5151371;27;20455;-60
2022/04/22 12:31:43;;;;;;;21.50;19.70;;;24.00;40.70;;;;;;5150073;27;20443;-60
2022/04/22 12:34:11;;;;;;;22.03;20.23;;;23.50;40.60;;;;;;5151338;27;20540;-60
2022/04/22 12:36:54;;;;;;;23.50;21.50;;;22.80;42.70;;;;;;5151390;27;20536;-61
2022/04/22 12:39:34;;;;;;;19.30;17.70;;;22.50;42.70;;;;;;5151212;27;20448;-62
2022/04/22 12:42:01;;;;;;;21.97;20.07;;;22.30;43.20;;;;;;5151102;27;20812;-60
2022/04/22 12:44:28;;;;;;;21.30;19.50;;;22.20;44.20;;;;;;5149675;27;20808;-58
2022/04/22 12:52:35;;;;;;;19.90;18.10;;;21.70;45.40;;;;;;5151050;27;20491;-60
2022/04/22 12:55:04;;;;;;;21.77;19.93;;;21.80;44.50;;;;;;5130300;28;20880;-59
2022/04/22 12:57:31;;;;;;;22.13;20.13;;;21.70;44.60;;;;;;5130233;28;20484;-60
2022/04/22 13:00:22;;;;;;;21.70;19.90;;;21.40;46.60;;;;;;5128483;28;20523;-61
2022/04/22 13:02:49;;;;;;;20.90;19.20;;;21.40;47.00;;;;;;5120069;27;20910;-59
2022/04/22 13:05:19;;;;;;;18.90;17.20;;;21.40;46.80;;;;;;5130001;28;20437;-60
2022/04/22 13:07:49;;;;;;;21.87;19.97;;;21.40;44.90;;;;;;5130143;27;20468;-60
2022/04/22 13:10:17;;;;;;;20.30;18.47;;;21.40;44.60;;;;;;5129800;28;20445;-60
2022/04/22 13:12:46;;;;;;;21.60;19.80;;;21.20;45.70;;;;;;5129895;28;20452;-60
2022/04/22 13:15:14;;;;;;;21.10;19.10;;;21.40;46.60;;;;;;5116803;28;20528;-59
2022/04/22 13:17:43;;;;;;;21.10;19.23;;;21.60;46.00;;;;;;5116140;28;20453;-60
2022/04/22 13:20:12;;;;;;;21.63;19.73;;;21.70;44.90;;;;;;5116074;28;20441;-60
2022/04/22 13:22:40;;;;;;;21.50;19.70;;;21.70;44.30;;;;;;5115919;28;20488;-60
2022/04/22 13:25:10;;;;;;;19.50;17.70;;;21.50;44.60;;;;;;5115942;28;20494;-60
2022/04/22 13:27:37;;;;;;;20.47;18.63;;;21.40;45.00;;;;;;5115954;28;20441;-59
2022/04/22 13:30:05;;;;;;;15.90;14.60;;;21.30;44.80;;;;;;5114370;28;21000;-60
2022/04/22 13:32:32;;;;;;;19.10;17.47;;;21.20;45.40;;;;;;5115935;28;20536;-58
2022/04/22 13:34:58;;;;;;;19.20;17.60;;;21.30;44.80;;;;;;5115775;28;20545;-58
2022/04/22 13:37:25;;;;;;;19.07;17.47;;;21.40;44.90;;;;;;5115514;28;20485;-59
2022/04/22 13:39:52;;;;;;;18.40;16.83;;;21.30;44.50;;;;;;5115754;28;20447;-59
2022/04/22 13:42:20;;;;;;;19.57;17.97;;;21.30;44.90;;;;;;5115645;28;20446;-61